NCAR-RAP Real-Time Weather Data

Output produced by METARs form (23 February 2020  02:39 UTC)
found at http://weather.rap.ucar.edu/surface/
 
KJAX 230156Z 01003KT 10SM CLR 07/03 A3035 RMK AO2 SLP276 T00720033
KJAX 230056Z 02004KT 10SM CLR 07/04 A3034 RMK AO2 SLP276 T00720039
KJAX 222356Z 05005KT 10SM FEW030 FEW250 09/04 A3035 RMK AO2 SLP276 T00890039 10150 20089 50001
KJAX 222256Z 06010KT 10SM FEW030 FEW250 11/04 A3035 RMK AO2 SLP277 T01060039
KJAX 222156Z 06010KT 10SM FEW030 FEW250 13/05 A3034 RMK AO2 SLP275 T01330050
KJAX 222056Z 02009KT 10SM FEW030 FEW250 14/05 A3034 RMK AO2 SLP275 T01390050 56016
KJAX 221956Z 04011KT 10SM FEW030 FEW250 14/06 A3035 RMK AO2 SLP279 T01440061
KJAX 221856Z 02009KT 10SM FEW026 FEW035 SCT250 14/06 A3037 RMK AO2 SLP283 T01440061
KJAX 221756Z 05012KT 10SM FEW035 FEW250 14/06 A3039 RMK AO2 SLP290 T01390056 10139 20017 58012
KJAX 221656Z 02016KT 10SM FEW030 FEW250 13/04 A3042 RMK AO2 SLP302 T01330044
KJAX 221556Z 05017G23KT 10SM FEW030 13/04 A3042 RMK AO2 SLP302 T01280039
KJAX 221456Z 02017G21KT 10SM CLR 10/02 A3042 RMK AO2 SLP302 T01000022 51018
KJAX 221356Z 36010KT 10SM FEW030 07/01 A3042 RMK AO2 SLP302 T00670006
KJAX 221256Z 35010KT 10SM FEW029 03/M02 A3039 RMK AO2 SLP292 T00331017
KJAX 221156Z 35010KT 10SM SCT029 02/M03 A3037 RMK AO2 SLP284 T00171028 10039 20017 51006
KJAX 221056Z 35009KT 10SM BKN030 02/M02 A3037 RMK AO2 SLP283 T00221022
KJAX 220956Z 35009KT 10SM BKN032 03/M02 A3036 RMK AO2 SLP280 T00281022
KJAX 220856Z 36009KT 10SM BKN032 03/M03 A3035 RMK AO2 SLP277 T00331028 58012
KJAX 220756Z 35012KT 10SM OVC034 04/M03 A3037 RMK AO2 SLP283 T00391028
KJAX 220656Z 35008KT 10SM BKN036 03/M03 A3038 RMK AO2 SLP289 T00331028
KJAX 220556Z 35009KT 10SM BKN036 03/M02 A3038 RMK AO2 SLP289 T00331022 10067 20033 58014
KJAX 220456Z 35009KT 10SM SCT039 04/M03 A3040 RMK AO2 SLP294 T00391028 401110039
KJAX 220356Z 34008KT 10SM BKN039 04/M02 A3042 RMK AO2 SLP300 T00441022
KJAX 220256Z 35009KT 10SM SCT040 05/M02 A3043 RMK AO2 SLP303 T00501022 51019
KJAX 220156Z 01010KT 10SM FEW030 06/M02 A3042 RMK AO2 SLP300 T00611017
KJAX 220056Z 03010KT 10SM FEW025 07/M01 A3039 RMK AO2 SLP292 T00671006
KJAX 212356Z 03005KT 10SM FEW025 07/01 A3037 RMK AO2 SLP284 T00670006 10111 20067 53014
KJAX 212256Z 02009KT 10SM FEW030 09/00 A3034 RMK AO2 SLP275 T00940000
KJAX 212156Z 03012G19KT 10SM FEW040 10/01 A3033 RMK AO2 SLP269 T01000006
KJAX 212056Z 04012KT 10SM SCT036 10/01 A3033 RMK AO2 SLP270 T01000006 56009
KJAX 211956Z 01014G18KT 10SM BKN036 09/01 A3033 RMK AO2 SLP272 T00940011
KJAX 211913Z 01018G22KT 10SM BKN030 09/01 A3034 RMK AO2 T00890011
KJAX 211856Z 02016G26KT 10SM BKN028 08/01 A3034 RMK AO2 PK WND 03026/1849 SLP274 T00830011
KJAX 211756Z 02019G24KT 10SM OVC028 08/02 A3036 RMK AO2 SLP279 T00830017 10083 20056 50005
KJAX 211656Z 36011G21KT 10SM OVC024 07/02 A3037 RMK AO2 SLP284 T00720017
KJAX 211556Z 36013KT 10SM OVC021 07/02 A3036 RMK AO2 SLP282 T00670017
KJAX 211456Z 36010KT 10SM OVC019 06/03 A3034 RMK AO2 SLP274 T00610028 51030
KJAX 211428Z 36009KT 10SM OVC015 06/03 A3033 RMK AO2 T00610028
KJAX 211356Z 36011KT 7SM OVC012 06/03 A3032 RMK AO2 SLP268 T00610033
KJAX 211256Z 36012KT 10SM FEW007 OVC012 06/03 A3028 RMK AO2 SLP255 T00560033
KJAX 211249Z 35010KT 10SM SCT007 OVC012 06/03 A3028 RMK AO2 T00560033
KJAX 211156Z 36010G21KT 5SM BR BKN007 OVC012 06/04 A3025 RMK AO2 SLP244 60004 70024 T00610039 10078 20061 53023
KJAX 211056Z 36011KT 5SM BR OVC009 06/04 A3022 RMK AO2 SLP234 T00610044
KJAX 210956Z 36015G21KT 9SM OVC009 06/04 A3019 RMK AO2 SLP225 P0001 T00610039
KJAX 210856Z 36013KT 6SM BR OVC009 06/04 A3018 RMK AO2 RAE23 SLP221 P0000 60003 T00610044 53011
KJAX 210756Z 36011KT 6SM -RA BR BKN009 OVC015 07/05 A3016 RMK AO2 SLP215 P0000 T00670050
KJAX 210656Z 01011KT 5SM -RA BR BKN007 OVC012 07/06 A3016 RMK AO2 SLP214 P0003 T00720056
KJAX 210556Z 01011KT 5SM RA BR BKN007 OVC012 08/06 A3015 RMK AO2 SLP210 P0001 60019 T00780056 10117 20078 50006
KJAX 210456Z 36010KT 5SM -RA BR OVC005 09/07 A3016 RMK AO2 SLP213 P0002 T00890067 401780083
KJAX 210452Z 35013KT 5SM -RA BR OVC005 09/07 A3015 RMK AO2 P0001
KJAX 210356Z 35007KT 10SM -RA OVC010 09/07 A3013 RMK AO2 RAB22 SLP204 P0000 T00890072
KJAX 210331Z 03006KT 10SM -RA BKN010 OVC029 09/07 A3013 RMK AO2 RAB22 P0000 T00890067
KJAX 210256Z 03009KT 10SM SCT011 OVC029 09/06 A3013 RMK AO2 RAE55 SLP204 P0004 60016 T00890061 50016
KJAX 210252Z 04009KT 10SM -RA SCT011 OVC029 08/06 A3014 RMK AO2 P0004